LiveATC.Net - Listen to live air traffic control over the Internet! Contact for advertising information

ICAO: LRAR  IATA: ARW   Airport: Arad International Airport
City: Arad
Country: Romania   Continent: Europe
LRAR METAR Weather: LRAR 091130Z VRB02KT 9999 OVC013 13/11 Q1020 R09/19//95
LRAR Flight Activity (FlightAware)
Bucharest Radar (West Sectors)
Feed Status: DOWN
Last heard on: 2015-09-07 09:38:02 (32 days 2 hours 40 minutes ago)
Bucharest Radar (West Sectors) Audio Archives
ARAD Approach127.250
Bucharest BUDOP Sector (BUDMO)124.100
Bucharest BUDOP Top Sector (BUDMO Top)132.750
Bucharest BUDOP/BUDOP Top Alternate134.460
Bucharest MOPUG Sector121.375
Bucharest MOPUG Top Sector125.765
Bucharest MOPUG/MOPUG Top Alternate124.350


Unauthorized use prohibited. See Terms of Service

Find LiveATC Audio Streams

Airport/ARTCC Code

(e.g., 124.400, 128.75)
Site-wide search

Browse LiveATC Feeds
LiveATC Coverage Map
Top 50 LiveATC Feeds
Bad Weather Areas

Offer a LiveATC Feed
Press Inquiries

LiveATC on iPhone
LiveATC on Android

Windows Phone
Windows 8/10

LiveATC Mobile
(Mobile browser)

ATC Audio Archives
Interesting Recordings

LiveATC Forums

Home Page
Make a Donation
LiveATC Bookstore

Terms of Use
Privacy Policy

ATC/Radar Sites
U.S. ARTCC Freqs
Canadian Air Freqs


FAA Airport Status
Nat'l Airspace Status
Arrival Demand Charts

Server Software By:

Please make a donation to help us keep growing!